createdAt,value
2018-09-20T00:01:08.501Z,34.03
2018-09-20T00:02:08.821Z,34.03
2018-09-20T00:04:02.009Z,34.41
2018-09-20T00:05:02.168Z,34.22
2018-09-20T00:06:55.516Z,34.31
2018-09-20T00:07:55.166Z,34.51
2018-09-20T00:09:48.761Z,34.51
2018-09-20T00:10:48.514Z,34.41
2018-09-20T00:12:42.961Z,34.22
2018-09-20T00:13:42.388Z,34.51
2018-09-20T00:15:35.835Z,34.51
2018-09-20T00:16:35.735Z,34.51
2018-09-20T00:18:29.089Z,34.41
2018-09-20T00:19:29.075Z,34.51
2018-09-20T00:21:22.681Z,34.22
2018-09-20T00:22:22.420Z,34.41
2018-09-20T00:24:15.763Z,34.31
2018-09-20T00:25:15.751Z,34.41
2018-09-20T00:27:09.323Z,34.41
2018-09-20T00:28:09.426Z,34.41
2018-09-20T00:30:02.479Z,34.22
2018-09-20T00:31:02.438Z,34.31
2018-09-20T00:32:56.397Z,34.22
2018-09-20T00:33:55.787Z,34.41
2018-09-20T00:35:49.013Z,34.31
2018-09-20T00:36:48.653Z,34.22
2018-09-20T00:37:48.643Z,34.22
2018-09-20T00:38:48.633Z,34.51
2018-09-20T00:39:48.952Z,34.22
2018-09-20T00:40:48.617Z,34.22
2018-09-20T00:41:48.634Z,34.22
2018-09-20T00:42:48.618Z,34.31
2018-09-20T00:43:48.610Z,34.41
2018-09-20T00:44:48.586Z,34.31
2018-09-20T00:45:48.908Z,34.22
2018-09-20T00:46:48.563Z,34.41
2018-09-20T00:47:48.554Z,34.41
2018-09-20T00:48:48.881Z,34.51
2018-09-20T00:49:48.538Z,34.51
2018-09-20T00:52:20.750Z,34.41
2018-09-20T00:53:20.570Z,34.31
2018-09-20T00:55:13.931Z,34.31
2018-09-20T00:56:14.254Z,34.41
2018-09-20T00:57:15.867Z,34.12
2018-09-20T00:58:13.936Z,34.12
2018-09-20T00:59:13.893Z,34.22
2018-09-20T01:00:13.881Z,33.93
2018-09-20T01:01:13.874Z,33.93
2018-09-20T01:02:13.872Z,34.31
2018-09-20T01:03:14.204Z,34.03
2018-09-20T01:04:13.873Z,33.93
2018-09-20T01:05:13.836Z,34.22
2018-09-20T01:06:13.825Z,34.12
2018-09-20T01:07:13.821Z,34.12
2018-09-20T01:08:13.813Z,34.22
2018-09-20T01:10:13.822Z,34.22
2018-09-20T01:11:13.786Z,34.22
2018-09-20T01:12:13.790Z,34.22
2018-09-20T01:13:13.776Z,33.93
2018-09-20T01:14:13.769Z,34.22
2018-09-20T01:15:14.088Z,34.22
2018-09-20T01:16:13.746Z,33.93
2018-09-20T01:17:13.737Z,34.12
2018-09-20T01:18:13.731Z,34.12
2018-09-20T01:19:13.712Z,34.12
2018-09-20T01:20:13.710Z,34.12
2018-09-20T01:21:13.730Z,34.12
2018-09-20T01:23:45.987Z,34.12
2018-09-20T01:24:45.802Z,34.22
2018-09-20T01:26:39.549Z,34.22
2018-09-20T01:27:39.098Z,34.12
2018-09-20T01:29:32.648Z,34.22
2018-09-20T01:30:32.442Z,34.22
2018-09-20T01:32:25.789Z,34.03
2018-09-20T01:33:25.782Z,33.93
2018-09-20T01:35:19.376Z,34.03
2018-09-20T01:36:19.112Z,33.93
2018-09-20T01:38:12.562Z,34.12
2018-09-20T01:39:12.459Z,34.03
2018-09-20T01:41:06.447Z,34.22
2018-09-20T01:42:06.136Z,34.31
2018-09-20T01:43:05.805Z,34.22
2018-09-20T01:44:05.792Z,34.22
2018-09-20T01:45:05.781Z,34.03
2018-09-20T01:46:06.100Z,34.12
2018-09-20T01:47:05.764Z,34.22
2018-09-20T01:48:06.085Z,34.12
2018-09-20T01:49:05.768Z,34.03
2018-09-20T01:50:05.734Z,34.12
2018-09-20T01:51:05.729Z,34.12
2018-09-20T01:52:06.048Z,33.93
2018-09-20T01:54:38.200Z,34.12
2018-09-20T01:55:37.751Z,34.12
2018-09-20T01:56:37.748Z,34.03
2018-09-20T01:57:37.738Z,34.03
2018-09-20T01:58:38.068Z,34.12
2018-09-20T01:59:37.732Z,34.03
2018-09-20T02:00:37.720Z,34.12
2018-09-20T02:01:37.740Z,34.12
2018-09-20T02:02:38.030Z,34.12
2018-09-20T02:03:37.689Z,34.03
2018-09-20T02:04:38.010Z,34.12
2018-09-20T02:05:37.672Z,34.03
2018-09-20T02:06:37.656Z,34.03
2018-09-20T02:07:37.985Z,34.12
2018-09-20T02:08:37.977Z,34.12
2018-09-20T02:09:37.974Z,34.12
2018-09-20T02:10:37.630Z,34.22
2018-09-20T02:11:37.950Z,34.12
2018-09-20T02:12:37.607Z,34.12
2018-09-20T02:13:37.599Z,34.12
2018-09-20T02:14:37.584Z,33.93
2018-09-20T02:15:37.602Z,34.12
2018-09-20T02:16:37.569Z,34.03
2018-09-20T02:17:37.587Z,34.03
2018-09-20T02:18:37.888Z,34.12
2018-09-20T02:19:37.571Z,34.22
2018-09-20T02:20:37.542Z,33.93
2018-09-20T02:21:37.887Z,33.93
2018-09-20T02:22:37.521Z,34.12
2018-09-20T02:23:37.507Z,34.12
2018-09-20T02:24:37.536Z,34.12
2018-09-20T02:25:37.498Z,34.12
2018-09-20T02:26:37.833Z,34.03
2018-09-20T02:27:37.486Z,34.12
2018-09-20T02:28:37.824Z,34.03
2018-09-20T02:29:37.461Z,34.12
2018-09-20T02:30:37.463Z,34.03
2018-09-20T02:31:37.440Z,34.12
2018-09-20T02:32:37.791Z,34.12
2018-09-20T02:33:37.431Z,34.03
2018-09-20T02:34:37.420Z,34.22
2018-09-20T02:35:37.745Z,34.12
2018-09-20T02:36:37.736Z,34.12
2018-09-20T02:37:37.393Z,34.12
2018-09-20T02:38:37.718Z,34.12
2018-09-20T02:39:37.384Z,34.03
2018-09-20T02:40:37.396Z,34.22
2018-09-20T02:41:37.359Z,34.12
2018-09-20T02:42:37.381Z,34.03
2018-09-20T02:43:37.697Z,34.03
2018-09-20T02:44:37.327Z,34.12
2018-09-20T02:45:37.327Z,34.03
2018-09-20T02:46:37.318Z,34.12
2018-09-20T02:47:37.659Z,34.12
2018-09-20T02:48:37.303Z,34.31
2018-09-20T02:49:37.292Z,34.22
2018-09-20T02:50:37.618Z,34.12
2018-09-20T02:51:37.299Z,34.22
2018-09-20T02:52:37.264Z,33.84
2018-09-20T02:53:37.251Z,34.03
2018-09-20T02:54:37.585Z,33.93
2018-09-20T02:55:37.241Z,34.03
2018-09-20T02:56:37.227Z,34.22
2018-09-20T02:57:37.221Z,34.12
2018-09-20T02:58:37.211Z,34.22
2018-09-20T02:59:37.208Z,34.12
2018-09-20T03:00:37.192Z,34.12
2018-09-20T03:01:37.186Z,34.22
2018-09-20T03:02:37.518Z,34.03
2018-09-20T03:03:37.183Z,34.22
2018-09-20T03:04:37.164Z,34.12
2018-09-20T03:05:37.488Z,34.12
2018-09-20T03:06:37.141Z,34.03
2018-09-20T03:07:37.132Z,33.93
2018-09-20T03:08:37.147Z,34.03
2018-09-20T03:09:37.142Z,34.12
2018-09-20T03:10:37.108Z,34.03
2018-09-20T03:11:37.440Z,34.12
2018-09-20T03:12:37.134Z,34.22
2018-09-20T03:15:13.003Z,34.12
2018-09-20T03:16:09.134Z,33.93
2018-09-20T03:17:09.125Z,33.93
2018-09-20T03:18:09.118Z,33.93
2018-09-20T03:19:09.109Z,34.12
2018-09-20T03:20:09.118Z,34.03
2018-09-20T03:21:09.427Z,34.03
2018-09-20T03:22:09.434Z,34.03
2018-09-20T03:23:09.071Z,34.03
2018-09-20T03:24:09.417Z,34.12
2018-09-20T03:25:09.068Z,34.03
2018-09-20T03:26:09.052Z,33.74
2018-09-20T03:27:09.038Z,34.03
2018-09-20T03:28:09.363Z,33.84
2018-09-20T03:29:09.017Z,34.03
2018-09-20T03:30:09.032Z,33.93
2018-09-20T03:31:09.003Z,34.03
2018-09-20T03:32:09.006Z,33.93
2018-09-20T03:33:09.327Z,33.93
2018-09-20T03:34:08.975Z,33.93
2018-09-20T03:35:09.307Z,33.93
2018-09-20T03:36:08.965Z,33.95
2018-09-20T03:37:08.956Z,34.03
2018-09-20T03:38:08.947Z,33.93
2018-09-20T03:39:08.943Z,33.85
2018-09-20T03:41:40.726Z,33.95
2018-09-20T03:42:40.499Z,33.93
2018-09-20T03:44:33.853Z,33.93
2018-09-20T03:45:33.836Z,34.03
2018-09-20T03:47:27.517Z,33.93
2018-09-20T03:48:27.182Z,34.03
2018-09-20T03:50:20.531Z,33.93
2018-09-20T03:51:20.530Z,34.03
2018-09-20T03:53:14.376Z,33.93
2018-09-20T03:54:13.883Z,34.03
2018-09-20T03:56:07.372Z,33.93
2018-09-20T03:57:07.384Z,34.03
2018-09-20T03:59:04.673Z,34.03
2018-09-20T04:00:00.706Z,34.03
2018-09-20T04:01:54.141Z,33.93
2018-09-20T04:02:54.048Z,34.03
2018-09-20T04:04:47.720Z,34.12
2018-09-20T04:05:47.404Z,34.03
2018-09-20T04:07:41.085Z,33.93
2018-09-20T04:08:40.756Z,34.03
2018-09-20T04:09:40.789Z,34.03
2018-09-20T04:12:13.050Z,34.03
2018-09-20T04:13:12.753Z,34.03
2018-09-20T04:15:06.117Z,34.03
2018-09-20T04:16:06.129Z,33.93
2018-09-20T04:17:59.670Z,33.93
2018-09-20T04:18:59.456Z,33.93
2018-09-20T04:19:59.780Z,33.93
2018-09-20T04:20:59.451Z,33.95
2018-09-20T04:21:59.762Z,34.03
2018-09-20T04:22:59.749Z,33.93
2018-09-20T04:23:59.400Z,33.93
2018-09-20T04:24:59.426Z,34.03
2018-09-20T04:25:59.385Z,33.93
2018-09-20T04:26:59.375Z,33.93
2018-09-20T04:27:59.378Z,33.93
2018-09-20T04:28:59.362Z,34.12
2018-09-20T04:29:59.353Z,33.84
2018-09-20T04:30:59.338Z,33.84
2018-09-20T04:31:59.334Z,33.93
2018-09-20T04:32:59.332Z,33.93
2018-09-20T04:33:59.657Z,33.84
2018-09-20T04:34:59.317Z,33.93
2018-09-20T04:35:59.301Z,33.93
2018-09-20T04:36:59.304Z,34.05
2018-09-20T04:37:59.638Z,33.84
2018-09-20T04:38:59.276Z,33.93
2018-09-20T04:39:59.284Z,33.74
2018-09-20T04:40:59.259Z,33.74
2018-09-20T04:41:59.248Z,34.12
2018-09-20T04:44:31.867Z,33.93
2018-09-20T04:45:31.322Z,33.95
2018-09-20T04:47:24.649Z,34.05
2018-09-20T04:48:25.001Z,34.03
2018-09-20T04:49:24.625Z,34.03
2018-09-20T04:50:24.618Z,33.95
2018-09-20T04:51:24.627Z,34.05
2018-09-20T04:52:24.616Z,34.14
2018-09-20T04:53:24.662Z,34.05
2018-09-20T04:54:24.592Z,34.22
2018-09-20T04:55:24.574Z,33.93
2018-09-20T04:56:24.565Z,34.05
2018-09-20T04:57:24.918Z,34.03
2018-09-20T04:58:24.546Z,33.95
2018-09-20T04:59:24.548Z,34.05
2018-09-20T05:00:24.537Z,34.05
2018-09-20T05:01:25.236Z,34.05
2018-09-20T05:02:24.863Z,34.12
2018-09-20T05:03:24.508Z,33.95
2018-09-20T05:04:24.493Z,34.05
2018-09-20T05:05:24.517Z,34.05
2018-09-20T05:06:24.488Z,34.05
2018-09-20T05:08:56.844Z,33.84
2018-09-20T05:09:56.857Z,34.14
2018-09-20T05:11:49.395Z,33.95
2018-09-20T05:12:49.718Z,33.95
2018-09-20T05:14:46.968Z,33.93
2018-09-20T05:15:43.267Z,33.85
2018-09-20T05:17:36.950Z,33.85
2018-09-20T05:18:36.609Z,34.22
2018-09-20T05:20:30.142Z,34.03
2018-09-20T05:21:30.295Z,33.85
2018-09-20T05:23:23.949Z,33.85
2018-09-20T05:24:23.282Z,33.95
2018-09-20T05:26:16.863Z,33.85
2018-09-20T05:27:16.623Z,33.85
2018-09-20T05:29:09.501Z,33.95
2018-09-20T05:30:09.829Z,33.95
2018-09-20T05:32:03.191Z,33.85
2018-09-20T05:33:02.882Z,34.14
2018-09-20T05:34:56.521Z,33.85
2018-09-20T05:35:56.174Z,33.95
2018-09-20T05:37:49.378Z,33.95
2018-09-20T05:38:49.045Z,34.05
2018-09-20T05:40:42.403Z,33.95
2018-09-20T05:41:42.707Z,33.95
2018-09-20T05:43:36.031Z,33.95
2018-09-20T05:44:35.743Z,33.95
2018-09-20T05:46:29.450Z,33.95
2018-09-20T05:47:29.107Z,34.05
2018-09-20T05:49:23.059Z,33.85
2018-09-20T05:50:22.431Z,33.85
2018-09-20T05:52:15.903Z,33.85
2018-09-20T05:53:15.771Z,33.85
2018-09-20T05:56:09.485Z,33.95
2018-09-20T05:58:02.851Z,33.75
2018-09-20T05:59:02.540Z,33.85
2018-09-20T06:00:56.099Z,33.75
2018-09-20T06:01:55.842Z,33.75
2018-09-20T06:03:49.644Z,33.95
2018-09-20T06:04:49.182Z,34.14
2018-09-20T06:06:43.064Z,34.14
2018-09-20T06:07:42.818Z,33.95
2018-09-20T06:09:36.274Z,34.14
2018-09-20T06:10:36.170Z,33.85
2018-09-20T06:12:29.715Z,33.85
2018-09-20T06:15:02.024Z,33.95
2018-09-20T06:16:01.568Z,33.95
2018-09-20T06:17:55.163Z,33.95
2018-09-20T06:18:54.938Z,33.85
2018-09-20T06:20:48.293Z,33.75
2018-09-20T06:21:48.709Z,33.85
2018-09-20T06:23:41.958Z,34.14
2018-09-20T06:24:41.990Z,34.14
2018-09-20T06:26:35.599Z,34.05
2018-09-20T06:27:35.343Z,34.05
2018-09-20T06:29:28.881Z,34.14
2018-09-20T06:30:28.338Z,34.05
2018-09-20T06:32:21.680Z,33.93
2018-09-20T06:33:21.707Z,34.12
2018-09-20T06:35:15.236Z,34.12
2018-09-20T06:36:15.032Z,34.12
2018-09-20T06:38:08.390Z,34.03
2018-09-20T06:39:08.378Z,34.43
2018-09-20T06:41:02.534Z,34.05
2018-09-20T06:42:02.098Z,34.03
2018-09-20T06:43:55.446Z,34.05
2018-09-20T06:44:55.442Z,34.03
2018-09-20T06:46:49.180Z,34.05
2018-09-20T06:47:48.783Z,34.12
2018-09-20T06:49:42.235Z,34.14
2018-09-20T06:50:42.127Z,34.12
2018-09-20T06:52:35.624Z,34.22
2018-09-20T06:53:35.475Z,34.12
2018-09-20T06:55:29.436Z,34.31
2018-09-20T06:56:28.852Z,34.22
2018-09-20T06:58:23.004Z,34.12
2018-09-20T06:59:22.490Z,34.12
2018-09-20T07:01:15.601Z,34.03
2018-09-20T07:02:15.514Z,34.03
2018-09-20T07:03:15.525Z,34.12
2018-09-20T07:04:15.849Z,34.14
2018-09-20T07:05:15.489Z,34.22
2018-09-20T07:06:15.489Z,34.31
2018-09-20T07:07:15.830Z,34.22
2018-09-20T07:08:15.818Z,34.22
2018-09-20T07:09:15.450Z,34.14
2018-09-20T07:10:15.798Z,34.33
2018-09-20T07:11:15.487Z,34.05
2018-09-20T07:12:15.444Z,34.14
2018-09-20T07:13:15.426Z,34.22
2018-09-20T07:14:15.452Z,34.12
2018-09-20T07:15:15.734Z,34.33
2018-09-20T07:17:48.537Z,34.12
2018-09-20T07:18:47.978Z,34.23
2018-09-20T07:20:41.320Z,34.12
2018-09-20T07:21:41.310Z,34.14
2018-09-20T07:23:38.773Z,33.93
2018-09-20T07:24:34.659Z,34.03
2018-09-20T07:26:28.042Z,33.93
2018-09-20T07:27:28.020Z,34.31
2018-09-20T07:29:21.466Z,34.22
2018-09-20T07:30:21.368Z,34.12
2018-09-20T07:32:15.056Z,34.03
2018-09-20T07:33:15.067Z,34.12
2018-09-20T07:35:08.384Z,34.12
2018-09-20T07:36:08.057Z,34.22
2018-09-20T07:38:01.412Z,34.31
2018-09-20T07:39:01.405Z,34.22
2018-09-20T07:40:54.972Z,34.31
2018-09-20T07:41:54.749Z,34.41
2018-09-20T07:43:48.205Z,34.41
2018-09-20T07:44:47.616Z,34.31
2018-09-20T07:48:13.672Z,34.41
2018-09-20T07:49:13.016Z,34.41
2018-09-20T07:51:06.376Z,34.51
2018-09-20T07:52:06.356Z,34.41
2018-09-20T07:54:00.276Z,34.31
2018-09-20T07:54:59.707Z,34.22
2018-09-20T07:56:53.096Z,34.22
2018-09-20T07:57:53.347Z,34.41
2018-09-20T07:59:46.603Z,34.41
2018-09-20T08:00:46.405Z,34.61
2018-09-20T08:02:40.085Z,34.12
2018-09-20T08:03:39.717Z,34.41
2018-09-20T08:05:33.741Z,34.22
2018-09-20T08:06:33.064Z,34.22
2018-09-20T08:08:26.425Z,34.41
2018-09-20T08:09:26.429Z,34.80
2018-09-20T08:11:19.957Z,34.41
2018-09-20T08:12:19.760Z,34.41
2018-09-20T08:14:13.473Z,34.70
2018-09-20T08:15:13.106Z,34.61
2018-09-20T08:17:06.772Z,34.61
2018-09-20T08:18:06.448Z,34.51
2018-09-20T08:19:59.822Z,34.41
2018-09-20T08:20:59.787Z,34.80
2018-09-20T08:22:53.452Z,34.61
2018-09-20T08:23:53.125Z,34.61
2018-09-20T08:25:46.811Z,34.22
2018-09-20T08:26:46.835Z,34.41
2018-09-20T08:28:40.268Z,34.70
2018-09-20T08:29:40.145Z,34.22
2018-09-20T08:31:33.515Z,34.31
2018-09-20T08:32:33.149Z,34.41
2018-09-20T08:34:26.720Z,34.22
2018-09-20T08:35:26.485Z,34.22
2018-09-20T08:37:20.002Z,34.41
2018-09-20T08:38:19.846Z,34.51
2018-09-20T08:40:13.440Z,34.41
2018-09-20T08:41:13.175Z,34.51
2018-09-20T08:43:06.526Z,34.51
2018-09-20T08:44:06.856Z,34.41
2018-09-20T08:46:00.672Z,34.41
2018-09-20T08:46:59.865Z,34.51
2018-09-20T08:48:53.218Z,34.31
2018-09-20T08:49:53.224Z,34.61
2018-09-20T08:51:46.633Z,34.51
2018-09-20T08:52:46.403Z,34.41
2018-09-20T08:54:39.422Z,34.31
2018-09-20T08:55:39.407Z,34.41
2018-09-20T08:57:36.305Z,34.51
2018-09-20T08:58:32.742Z,34.31
2018-09-20T09:01:58.153Z,34.51
2018-09-20T09:02:58.150Z,34.41
2018-09-20T09:04:52.093Z,34.31
2018-09-20T09:05:52.180Z,34.51
2018-09-20T09:07:45.197Z,34.31
2018-09-20T09:08:45.518Z,34.22
2018-09-20T09:10:38.720Z,34.31
2018-09-20T09:13:31.931Z,34.31
2018-09-20T09:14:31.912Z,34.31
2018-09-20T09:16:25.527Z,34.22
2018-09-20T09:17:25.259Z,34.31
2018-09-20T09:19:20.211Z,34.51
2018-09-20T09:20:19.466Z,34.12
2018-09-20T09:22:12.695Z,34.03
2018-09-20T09:23:12.475Z,34.51
2018-09-20T09:25:05.829Z,33.93
2018-09-20T09:26:05.816Z,33.93
2018-09-20T09:27:59.376Z,34.31
2018-09-20T09:28:59.189Z,34.22
2018-09-20T09:30:52.601Z,34.22
2018-09-20T09:33:24.683Z,34.22
2018-09-20T09:34:24.605Z,34.22
2018-09-20T09:36:18.280Z,34.12
2018-09-20T09:37:17.971Z,34.31
2018-09-20T09:39:11.506Z,34.22
2018-09-20T09:40:11.311Z,34.41
2018-09-20T09:42:04.663Z,34.51
2018-09-20T09:43:04.617Z,34.41
2018-09-20T09:44:58.510Z,34.51
2018-09-20T09:45:57.955Z,34.31
2018-09-20T09:47:51.433Z,34.51
2018-09-20T09:48:51.311Z,34.41
2018-09-20T09:50:45.206Z,34.41
2018-09-20T09:51:44.654Z,34.41
2018-09-20T09:53:38.362Z,34.41
2018-09-20T09:54:38.011Z,34.31
2018-09-20T09:56:31.515Z,34.22
2018-09-20T09:57:31.681Z,34.41
2018-09-20T09:59:25.074Z,34.41
2018-09-20T10:00:25.052Z,34.41
2018-09-20T10:02:18.284Z,34.22
2018-09-20T10:03:18.048Z,34.22
2018-09-20T10:05:11.397Z,34.31
2018-09-20T10:06:11.713Z,34.41
2018-09-20T10:08:05.540Z,34.41
2018-09-20T10:09:04.729Z,34.41
2018-09-20T10:10:58.155Z,34.51
2018-09-20T10:11:58.148Z,34.41
2018-09-20T10:13:51.753Z,34.41
2018-09-20T10:14:51.829Z,34.22
2018-09-20T10:16:45.431Z,34.22
2018-09-20T10:17:44.824Z,33.93
2018-09-20T10:19:38.472Z,34.12
2018-09-20T10:20:38.522Z,34.22
2018-09-20T10:22:31.516Z,34.22
2018-09-20T10:23:31.513Z,34.31
2018-09-20T10:25:25.416Z,34.41
2018-09-20T10:26:24.859Z,34.22
2018-09-20T10:28:18.209Z,34.61
2018-09-20T10:29:18.209Z,34.61
2018-09-20T10:31:15.898Z,34.61
2018-09-20T10:32:11.541Z,34.80
2018-09-20T10:34:04.959Z,34.61
2018-09-20T10:35:04.873Z,34.61
2018-09-20T10:37:01.671Z,34.41
2018-09-20T10:37:58.221Z,34.80
2018-09-20T10:39:51.574Z,34.41
2018-09-20T10:40:51.553Z,34.80
2018-09-20T10:42:45.730Z,34.61
2018-09-20T10:43:45.287Z,34.70
2018-09-20T10:45:38.288Z,34.61
2018-09-20T10:46:38.633Z,34.89
2018-09-20T10:48:32.189Z,34.61
2018-09-20T10:49:31.619Z,34.61
2018-09-20T10:51:24.963Z,34.70
2018-09-20T10:52:24.951Z,34.61
2018-09-20T10:54:18.531Z,34.61
2018-09-20T10:55:18.302Z,34.41
2018-09-20T10:57:11.659Z,34.61
2018-09-20T10:58:11.638Z,34.70
2018-09-20T11:00:05.164Z,34.70
2018-09-20T11:01:04.982Z,34.70
2018-09-20T11:02:58.384Z,34.70
2018-09-20T11:03:58.335Z,34.70
2018-09-20T11:05:55.720Z,34.70
2018-09-20T11:06:51.669Z,34.61
2018-09-20T11:08:45.019Z,34.80
2018-09-20T11:09:45.010Z,34.70
2018-09-20T11:11:38.592Z,34.70
2018-09-20T11:12:38.341Z,34.80
2018-09-20T11:14:32.035Z,34.70
2018-09-20T11:15:31.719Z,34.89
2018-09-20T11:17:25.269Z,34.70
2018-09-20T11:18:25.035Z,34.89
2018-09-20T11:20:18.916Z,34.80
2018-09-20T11:21:18.916Z,34.80
2018-09-20T11:22:19.233Z,34.88
2018-09-20T11:23:18.891Z,34.80
2018-09-20T11:24:18.886Z,34.61
2018-09-20T11:25:18.872Z,34.70
2018-09-20T11:26:18.868Z,34.80
2018-09-20T11:27:18.873Z,34.89
2018-09-20T11:28:18.855Z,34.88
2018-09-20T11:29:18.834Z,34.78
2018-09-20T11:30:18.842Z,34.99
2018-09-20T11:31:18.818Z,34.89
2018-09-20T11:32:18.823Z,34.80
2018-09-20T11:33:18.805Z,34.89
2018-09-20T11:34:18.827Z,34.88
2018-09-20T11:35:18.787Z,34.89
2018-09-20T11:36:18.791Z,34.97
2018-09-20T11:37:18.780Z,34.89
2018-09-20T11:38:18.758Z,35.06
2018-09-20T11:39:18.760Z,35.18
2018-09-20T11:40:18.740Z,34.89
2018-09-20T11:41:18.733Z,35.18
2018-09-20T11:42:19.080Z,35.18
2018-09-20T11:43:18.752Z,34.97
2018-09-20T11:44:18.715Z,35.06
2018-09-20T11:45:18.703Z,35.06
2018-09-20T11:46:18.688Z,35.18
2018-09-20T11:47:18.687Z,35.16
2018-09-20T11:48:18.674Z,35.06
2018-09-20T11:49:18.675Z,35.06
2018-09-20T11:50:18.676Z,34.97
2018-09-20T11:51:18.679Z,35.06
2018-09-20T11:52:18.654Z,34.97
2018-09-20T11:53:19.485Z,34.97
2018-09-20T11:54:18.627Z,35.26
2018-09-20T11:55:18.619Z,35.16
2018-09-20T11:56:18.935Z,35.06
2018-09-20T11:57:18.601Z,35.08
2018-09-20T11:58:18.591Z,35.08
2018-09-20T11:59:18.935Z,35.16
2018-09-20T12:00:18.601Z,34.88
2018-09-20T12:01:18.578Z,34.97
2018-09-20T12:02:18.892Z,35.06
2018-09-20T12:03:18.553Z,35.06
2018-09-20T12:04:18.532Z,35.06
2018-09-20T12:05:18.536Z,34.97
2018-09-20T12:06:18.527Z,34.97
2018-09-20T12:07:18.542Z,35.06
2018-09-20T12:08:18.835Z,35.16
2018-09-20T12:09:18.504Z,34.97
2018-09-20T12:10:18.500Z,35.06
2018-09-20T12:11:18.815Z,35.26
2018-09-20T12:12:18.802Z,35.18
2018-09-20T12:13:18.793Z,34.97
2018-09-20T12:14:18.445Z,35.08
2018-09-20T12:15:18.782Z,34.97
2018-09-20T12:16:18.481Z,35.08
2018-09-20T12:17:18.759Z,34.97
2018-09-20T12:18:18.413Z,35.06
2018-09-20T12:19:18.757Z,35.06
2018-09-20T12:20:18.784Z,35.08
2018-09-20T12:21:18.385Z,35.06
2018-09-20T12:22:18.379Z,34.97
2018-09-20T12:23:18.702Z,35.06
2018-09-20T12:24:18.702Z,35.06
2018-09-20T12:25:18.687Z,35.16
2018-09-20T12:26:18.379Z,34.97
2018-09-20T12:27:18.362Z,35.06
2018-09-20T12:28:18.336Z,34.97
2018-09-20T12:29:18.326Z,35.18
2018-09-20T12:30:18.657Z,35.16
2018-09-20T12:31:18.303Z,35.06
2018-09-20T12:32:18.636Z,34.97
2018-09-20T12:33:18.291Z,34.97
2018-09-20T12:34:18.274Z,34.97
2018-09-20T12:35:18.289Z,35.16
2018-09-20T12:36:18.263Z,34.97
2018-09-20T12:37:18.253Z,34.97
2018-09-20T12:38:18.580Z,35.06
2018-09-20T12:39:18.233Z,35.06
2018-09-20T12:40:18.213Z,34.97
2018-09-20T12:41:18.215Z,35.16
2018-09-20T12:42:18.198Z,35.06
2018-09-20T12:43:18.539Z,34.97
2018-09-20T12:44:18.541Z,35.06
2018-09-20T12:45:18.181Z,35.06
2018-09-20T12:46:18.171Z,35.26
2018-09-20T12:47:18.496Z,35.16
2018-09-20T12:48:18.510Z,35.16
2018-09-20T12:49:18.174Z,35.16
2018-09-20T12:50:18.146Z,35.16
2018-09-20T12:51:18.124Z,35.06
2018-09-20T12:52:18.116Z,35.26
2018-09-20T12:53:18.111Z,35.16
2018-09-20T12:54:18.098Z,35.26
2018-09-20T12:55:18.448Z,35.16
2018-09-20T12:56:18.434Z,35.06
2018-09-20T12:57:18.108Z,35.06
2018-09-20T12:58:18.059Z,35.16
2018-09-20T12:59:18.057Z,35.06
2018-09-20T13:00:18.381Z,35.06
2018-09-20T13:01:18.045Z,35.36
2018-09-20T13:02:18.064Z,35.26
2018-09-20T13:03:18.046Z,35.16
2018-09-20T13:04:18.011Z,35.06
2018-09-20T13:05:18.337Z,35.26
2018-09-20T13:06:17.996Z,35.16
2018-09-20T13:07:18.318Z,35.26
2018-09-20T13:08:17.978Z,34.97
2018-09-20T13:09:17.971Z,35.16
2018-09-20T13:10:17.962Z,34.97
2018-09-20T13:11:17.945Z,35.16
2018-09-20T13:12:18.279Z,35.16
2018-09-20T13:13:18.272Z,35.16
2018-09-20T13:14:17.926Z,35.16
2018-09-20T13:15:17.908Z,35.16
2018-09-20T13:16:17.939Z,35.06
2018-09-20T13:17:17.901Z,35.26
2018-09-20T13:18:17.890Z,35.26
2018-09-20T13:19:17.906Z,35.26
2018-09-20T13:20:17.934Z,35.16
2018-09-20T13:21:17.891Z,35.26
2018-09-20T13:22:18.191Z,35.06
2018-09-20T13:23:17.846Z,35.26
2018-09-20T13:24:17.829Z,35.36
2018-09-20T13:25:17.924Z,35.16
2018-09-20T13:26:17.820Z,35.26
2018-09-20T13:27:18.165Z,35.16
2018-09-20T13:28:17.808Z,35.16
2018-09-20T13:29:18.125Z,35.16
2018-09-20T13:30:17.781Z,35.06
2018-09-20T13:31:17.783Z,35.06
2018-09-20T13:32:17.807Z,35.16
2018-09-20T13:33:17.754Z,35.16
2018-09-20T13:34:17.749Z,35.16
2018-09-20T13:35:17.753Z,35.16
2018-09-20T13:36:17.728Z,35.16
2018-09-20T13:37:17.805Z,35.16
2018-09-20T13:38:17.719Z,35.16
2018-09-20T13:39:17.708Z,35.16
2018-09-20T13:40:17.711Z,35.16
2018-09-20T13:41:17.712Z,35.26
2018-09-20T13:42:17.679Z,35.16
2018-09-20T13:43:17.718Z,35.26
2018-09-20T13:44:17.656Z,35.16
2018-09-20T13:45:17.651Z,35.26
2018-09-20T13:46:17.644Z,35.26
2018-09-20T13:47:17.635Z,35.26
2018-09-20T13:48:17.624Z,35.16
2018-09-20T13:49:17.623Z,35.16
2018-09-20T13:50:17.619Z,35.06
2018-09-20T13:51:17.940Z,35.26
2018-09-20T13:52:17.586Z,35.26
2018-09-20T13:53:17.576Z,35.16
2018-09-20T13:54:17.572Z,35.16
2018-09-20T13:55:17.594Z,35.16
2018-09-20T13:56:17.569Z,35.16
2018-09-20T13:57:17.886Z,35.16
2018-09-20T13:58:17.546Z,35.16
2018-09-20T13:59:17.531Z,35.26
2018-09-20T14:00:17.857Z,35.26
2018-09-20T14:01:17.521Z,35.16
2018-09-20T14:02:17.831Z,35.16
2018-09-20T14:03:17.495Z,35.26
2018-09-20T14:04:17.512Z,35.26
2018-09-20T14:05:17.480Z,35.26
2018-09-20T14:06:17.470Z,35.16
2018-09-20T14:07:17.800Z,35.06
2018-09-20T14:08:17.802Z,35.16
2018-09-20T14:09:17.443Z,35.36
2018-09-20T14:10:17.444Z,35.16
2018-09-20T14:11:17.459Z,35.16
2018-09-20T14:12:17.421Z,35.16
2018-09-20T14:13:17.421Z,35.16
2018-09-20T14:14:17.396Z,35.06
2018-09-20T14:15:17.434Z,35.06
2018-09-20T14:16:17.392Z,35.26
2018-09-20T14:17:17.714Z,35.16
2018-09-20T14:18:17.367Z,35.16
2018-09-20T14:19:17.694Z,35.16
2018-09-20T14:20:17.678Z,35.26
2018-09-20T14:21:17.673Z,35.16
2018-09-20T14:22:17.680Z,35.26
2018-09-20T14:23:17.656Z,35.16
2018-09-20T14:24:17.305Z,35.06
2018-09-20T14:25:17.636Z,35.16
2018-09-20T14:26:17.297Z,35.16
2018-09-20T14:27:17.287Z,35.16
2018-09-20T14:28:17.636Z,35.16
2018-09-20T14:29:17.614Z,35.06
2018-09-20T14:30:17.265Z,35.26
2018-09-20T14:31:17.254Z,35.06
2018-09-20T14:32:17.247Z,35.16
2018-09-20T14:33:17.578Z,35.16
2018-09-20T14:34:17.577Z,35.26
2018-09-20T14:35:17.553Z,35.16
2018-09-20T14:36:17.209Z,35.16
2018-09-20T14:37:17.200Z,35.26
2018-09-20T14:38:17.540Z,35.16
2018-09-20T14:39:17.200Z,35.16
2018-09-20T14:40:17.168Z,35.26
2018-09-20T14:41:17.163Z,35.26
2018-09-20T14:42:17.173Z,35.26
2018-09-20T14:43:17.484Z,35.16
2018-09-20T14:44:17.188Z,35.16
2018-09-20T14:45:17.507Z,35.16
2018-09-20T14:46:17.121Z,35.26
2018-09-20T14:47:17.111Z,35.26
2018-09-20T14:48:17.128Z,35.06
2018-09-20T14:49:17.427Z,35.16
2018-09-20T14:50:17.116Z,35.26
2018-09-20T14:51:17.424Z,35.26
2018-09-20T14:52:17.067Z,35.16
2018-09-20T14:53:17.055Z,35.16
2018-09-20T14:54:17.050Z,35.26
2018-09-20T14:55:17.040Z,35.26
2018-09-20T14:56:17.044Z,35.26
2018-09-20T14:57:17.066Z,35.16
2018-09-20T14:58:17.026Z,35.16
2018-09-20T14:59:17.003Z,35.06
2018-09-20T15:00:16.991Z,35.16
2018-09-20T15:01:16.991Z,35.16
2018-09-20T15:02:16.988Z,35.16
2018-09-20T15:03:16.999Z,35.16
2018-09-20T15:04:17.293Z,35.16
2018-09-20T15:05:16.948Z,35.26
2018-09-20T15:06:17.276Z,35.26
2018-09-20T15:07:16.950Z,35.16
2018-09-20T15:08:17.007Z,35.16
2018-09-20T15:09:16.924Z,35.26
2018-09-20T15:10:17.262Z,35.16
2018-09-20T15:11:16.944Z,35.16
2018-09-20T15:12:16.911Z,35.06
2018-09-20T15:13:17.218Z,35.16
2018-09-20T15:14:17.205Z,35.16
2018-09-20T15:15:16.930Z,35.26
2018-09-20T15:16:16.876Z,35.16
2018-09-20T15:17:17.198Z,35.16
2018-09-20T15:18:16.848Z,35.26
2018-09-20T15:19:16.824Z,35.16
2018-09-20T15:20:16.821Z,35.06
2018-09-20T15:21:17.142Z,35.26
2018-09-20T15:22:16.798Z,35.06
2018-09-20T15:23:16.792Z,35.16
2018-09-20T15:24:16.785Z,35.16
2018-09-20T15:25:16.777Z,35.06
2018-09-20T15:26:17.100Z,35.16
2018-09-20T15:27:17.119Z,35.16
2018-09-20T15:28:17.088Z,35.16
2018-09-20T15:29:16.790Z,35.06
2018-09-20T15:30:17.063Z,35.16